sensor_id;sensor_type;location;lat;lon;timestamp;P1;durP1;ratioP1;P2;durP2;ratioP2
29732;SDS011;16643;43.158;25.302;2023-06-22T00:02:16;11.95;;;10.75;;
29732;SDS011;16643;43.158;25.302;2023-06-22T00:04:42;14.10;;;11.20;;
29732;SDS011;16643;43.158;25.302;2023-06-22T00:07:08;15.18;;;11.73;;
29732;SDS011;16643;43.158;25.302;2023-06-22T00:09:34;16.45;;;11.82;;
29732;SDS011;16643;43.158;25.302;2023-06-22T00:12:00;15.60;;;11.27;;
29732;SDS011;16643;43.158;25.302;2023-06-22T00:14:26;14.88;;;11.77;;
29732;SDS011;16643;43.158;25.302;2023-06-22T00:16:52;13.18;;;11.45;;
29732;SDS011;16643;43.158;25.302;2023-06-22T00:19:22;15.45;;;11.77;;
29732;SDS011;16643;43.158;25.302;2023-06-22T00:21:48;13.07;;;11.27;;
29732;SDS011;16643;43.158;25.302;2023-06-22T00:24:18;18.25;;;11.70;;
29732;SDS011;16643;43.158;25.302;2023-06-22T00:26:49;13.75;;;10.82;;
29732;SDS011;16643;43.158;25.302;2023-06-22T00:29:15;13.20;;;11.80;;
29732;SDS011;16643;43.158;25.302;2023-06-22T00:31:40;13.55;;;11.18;;
29732;SDS011;16643;43.158;25.302;2023-06-22T00:34:06;14.00;;;11.68;;
29732;SDS011;16643;43.158;25.302;2023-06-22T00:36:33;12.40;;;10.98;;
29732;SDS011;16643;43.158;25.302;2023-06-22T00:38:59;14.00;;;12.48;;
29732;SDS011;16643;43.158;25.302;2023-06-22T00:41:25;14.82;;;11.77;;
29732;SDS011;16643;43.158;25.302;2023-06-22T00:43:53;15.52;;;12.35;;
29732;SDS011;16643;43.158;25.302;2023-06-22T00:46:20;15.45;;;12.00;;
29732;SDS011;16643;43.158;25.302;2023-06-22T00:48:47;16.77;;;12.23;;
29732;SDS011;16643;43.158;25.302;2023-06-22T00:51:13;13.43;;;11.55;;
29732;SDS011;16643;43.158;25.302;2023-06-22T00:53:39;16.27;;;12.68;;
29732;SDS011;16643;43.158;25.302;2023-06-22T00:56:06;12.57;;;11.10;;
29732;SDS011;16643;43.158;25.302;2023-06-22T00:58:34;14.00;;;11.43;;
29732;SDS011;16643;43.158;25.302;2023-06-22T01:01:01;12.90;;;11.57;;
29732;SDS011;16643;43.158;25.302;2023-06-22T01:03:27;14.65;;;12.65;;
29732;SDS011;16643;43.158;25.302;2023-06-22T01:05:54;16.13;;;13.27;;
29732;SDS011;16643;43.158;25.302;2023-06-22T01:08:29;14.13;;;12.63;;
29732;SDS011;16643;43.158;25.302;2023-06-22T01:13:57;18.50;;;12.30;;
29732;SDS011;16643;43.158;25.302;2023-06-22T01:16:29;16.55;;;12.98;;
29732;SDS011;16643;43.158;25.302;2023-06-22T01:18:57;15.75;;;12.35;;
29732;SDS011;16643;43.158;25.302;2023-06-22T01:21:26;13.10;;;11.70;;
29732;SDS011;16643;43.158;25.302;2023-06-22T01:29:10;14.43;;;12.30;;
29732;SDS011;16643;43.158;25.302;2023-06-22T01:31:39;13.48;;;11.90;;
29732;SDS011;16643;43.158;25.302;2023-06-22T01:34:06;15.98;;;12.60;;
29732;SDS011;16643;43.158;25.302;2023-06-22T01:36:33;12.85;;;11.30;;
29732;SDS011;16643;43.158;25.302;2023-06-22T01:38:59;12.93;;;11.30;;
29732;SDS011;16643;43.158;25.302;2023-06-22T01:41:27;14.20;;;12.18;;
29732;SDS011;16643;43.158;25.302;2023-06-22T01:46:21;14.45;;;12.00;;
29732;SDS011;16643;43.158;25.302;2023-06-22T01:48:47;14.40;;;12.18;;
29732;SDS011;16643;43.158;25.302;2023-06-22T01:51:13;14.88;;;12.32;;
29732;SDS011;16643;43.158;25.302;2023-06-22T01:53:39;15.80;;;12.00;;
29732;SDS011;16643;43.158;25.302;2023-06-22T01:56:05;13.30;;;11.45;;
29732;SDS011;16643;43.158;25.302;2023-06-22T01:58:31;13.63;;;12.20;;
29732;SDS011;16643;43.158;25.302;2023-06-22T02:03:37;15.52;;;12.57;;
29732;SDS011;16643;43.158;25.302;2023-06-22T02:06:13;12.98;;;11.32;;
29732;SDS011;16643;43.158;25.302;2023-06-22T02:08:46;15.13;;;12.82;;
29732;SDS011;16643;43.158;25.302;2023-06-22T02:11:16;14.02;;;12.18;;
29732;SDS011;16643;43.158;25.302;2023-06-22T02:16:13;17.15;;;12.10;;
29732;SDS011;16643;43.158;25.302;2023-06-22T02:18:45;17.05;;;12.05;;
29732;SDS011;16643;43.158;25.302;2023-06-22T02:21:18;20.50;;;12.77;;
29732;SDS011;16643;43.158;25.302;2023-06-22T02:23:44;14.25;;;11.57;;
29732;SDS011;16643;43.158;25.302;2023-06-22T02:26:10;13.82;;;12.43;;
29732;SDS011;16643;43.158;25.302;2023-06-22T02:28:36;15.32;;;13.07;;
29732;SDS011;16643;43.158;25.302;2023-06-22T02:31:02;14.45;;;11.55;;
29732;SDS011;16643;43.158;25.302;2023-06-22T02:33:27;13.25;;;11.15;;
29732;SDS011;16643;43.158;25.302;2023-06-22T02:35:53;16.42;;;12.35;;
29732;SDS011;16643;43.158;25.302;2023-06-22T02:38:19;18.88;;;12.38;;
29732;SDS011;16643;43.158;25.302;2023-06-22T02:40:45;12.85;;;11.43;;
29732;SDS011;16643;43.158;25.302;2023-06-22T02:43:11;15.45;;;12.57;;
29732;SDS011;16643;43.158;25.302;2023-06-22T02:45:37;12.13;;;10.73;;
29732;SDS011;16643;43.158;25.302;2023-06-22T02:48:02;17.30;;;11.73;;
29732;SDS011;16643;43.158;25.302;2023-06-22T02:50:28;14.02;;;12.27;;
29732;SDS011;16643;43.158;25.302;2023-06-22T02:52:54;13.43;;;12.02;;
29732;SDS011;16643;43.158;25.302;2023-06-22T02:55:20;15.38;;;11.60;;
29732;SDS011;16643;43.158;25.302;2023-06-22T02:57:45;14.55;;;11.75;;
29732;SDS011;16643;43.158;25.302;2023-06-22T03:00:13;13.15;;;11.70;;
29732;SDS011;16643;43.158;25.302;2023-06-22T03:02:49;14.32;;;12.32;;
29732;SDS011;16643;43.158;25.302;2023-06-22T03:05:15;16.73;;;12.52;;
29732;SDS011;16643;43.158;25.302;2023-06-22T03:07:45;14.82;;;11.70;;
29732;SDS011;16643;43.158;25.302;2023-06-22T03:10:12;12.77;;;11.40;;
29732;SDS011;16643;43.158;25.302;2023-06-22T03:12:38;13.50;;;11.65;;
29732;SDS011;16643;43.158;25.302;2023-06-22T03:15:05;14.30;;;12.75;;
29732;SDS011;16643;43.158;25.302;2023-06-22T03:17:33;19.85;;;13.32;;
29732;SDS011;16643;43.158;25.302;2023-06-22T03:19:59;15.27;;;12.40;;
29732;SDS011;16643;43.158;25.302;2023-06-22T03:22:25;14.25;;;11.95;;
29732;SDS011;16643;43.158;25.302;2023-06-22T03:24:51;15.07;;;11.90;;
29732;SDS011;16643;43.158;25.302;2023-06-22T03:27:16;18.65;;;13.07;;
29732;SDS011;16643;43.158;25.302;2023-06-22T03:29:42;13.30;;;11.55;;
29732;SDS011;16643;43.158;25.302;2023-06-22T03:32:09;15.52;;;12.32;;
29732;SDS011;16643;43.158;25.302;2023-06-22T03:34:35;13.95;;;11.77;;
29732;SDS011;16643;43.158;25.302;2023-06-22T03:37:01;14.77;;;12.73;;
29732;SDS011;16643;43.158;25.302;2023-06-22T03:39:28;18.85;;;12.68;;
29732;SDS011;16643;43.158;25.302;2023-06-22T03:41:53;13.07;;;11.18;;
29732;SDS011;16643;43.158;25.302;2023-06-22T03:44:19;12.82;;;11.52;;
29732;SDS011;16643;43.158;25.302;2023-06-22T03:46:44;14.57;;;11.35;;
29732;SDS011;16643;43.158;25.302;2023-06-22T03:49:10;18.70;;;11.57;;
29732;SDS011;16643;43.158;25.302;2023-06-22T03:51:36;17.30;;;12.27;;
29732;SDS011;16643;43.158;25.302;2023-06-22T03:54:01;13.07;;;11.48;;
29732;SDS011;16643;43.158;25.302;2023-06-22T03:56:27;14.32;;;11.63;;
29732;SDS011;16643;43.158;25.302;2023-06-22T03:58:53;14.48;;;12.45;;
29732;SDS011;16643;43.158;25.302;2023-06-22T04:01:18;16.42;;;11.98;;
29732;SDS011;16643;43.158;25.302;2023-06-22T04:03:44;14.35;;;12.32;;
29732;SDS011;16643;43.158;25.302;2023-06-22T04:06:09;19.73;;;12.93;;
29732;SDS011;16643;43.158;25.302;2023-06-22T04:08:35;14.10;;;12.40;;
29732;SDS011;16643;43.158;25.302;2023-06-22T04:11:01;13.13;;;11.73;;
29732;SDS011;16643;43.158;25.302;2023-06-22T04:13:26;14.20;;;11.65;;
29732;SDS011;16643;43.158;25.302;2023-06-22T04:15:52;15.55;;;11.65;;
29732;SDS011;16643;43.158;25.302;2023-06-22T04:18:18;15.82;;;11.43;;
29732;SDS011;16643;43.158;25.302;2023-06-22T04:20:43;14.50;;;11.52;;
29732;SDS011;16643;43.158;25.302;2023-06-22T04:23:12;14.18;;;11.57;;
29732;SDS011;16643;43.158;25.302;2023-06-22T04:25:38;12.35;;;11.05;;
29732;SDS011;16643;43.158;25.302;2023-06-22T04:28:04;14.00;;;11.82;;
29732;SDS011;16643;43.158;25.302;2023-06-22T04:30:30;15.45;;;11.57;;
29732;SDS011;16643;43.158;25.302;2023-06-22T04:32:59;12.75;;;10.95;;
29732;SDS011;16643;43.158;25.302;2023-06-22T04:35:25;12.23;;;10.95;;
29732;SDS011;16643;43.158;25.302;2023-06-22T04:37:52;12.85;;;11.48;;
29732;SDS011;16643;43.158;25.302;2023-06-22T04:40:21;12.80;;;10.63;;
29732;SDS011;16643;43.158;25.302;2023-06-22T04:42:47;15.05;;;10.70;;
29732;SDS011;16643;43.158;25.302;2023-06-22T04:45:18;12.63;;;10.65;;
29732;SDS011;16643;43.158;25.302;2023-06-22T04:47:45;15.07;;;13.48;;
29732;SDS011;16643;43.158;25.302;2023-06-22T04:50:11;14.23;;;12.77;;
29732;SDS011;16643;43.158;25.302;2023-06-22T04:52:37;15.18;;;12.55;;
29732;SDS011;16643;43.158;25.302;2023-06-22T04:55:03;14.52;;;13.02;;
29732;SDS011;16643;43.158;25.302;2023-06-22T04:57:29;18.15;;;13.38;;
29732;SDS011;16643;43.158;25.302;2023-06-22T04:59:59;13.32;;;11.45;;
29732;SDS011;16643;43.158;25.302;2023-06-22T05:02:38;13.55;;;11.38;;
29732;SDS011;16643;43.158;25.302;2023-06-22T05:05:06;14.30;;;11.90;;
29732;SDS011;16643;43.158;25.302;2023-06-22T05:07:36;18.15;;;10.85;;
29732;SDS011;16643;43.158;25.302;2023-06-22T05:10:02;12.40;;;10.23;;
29732;SDS011;16643;43.158;25.302;2023-06-22T05:12:29;16.23;;;10.43;;
29732;SDS011;16643;43.158;25.302;2023-06-22T05:14:55;12.85;;;11.02;;
29732;SDS011;16643;43.158;25.302;2023-06-22T05:17:21;16.40;;;10.95;;
29732;SDS011;16643;43.158;25.302;2023-06-22T05:19:47;17.20;;;11.45;;
29732;SDS011;16643;43.158;25.302;2023-06-22T05:22:15;13.98;;;10.38;;
29732;SDS011;16643;43.158;25.302;2023-06-22T05:24:42;12.93;;;10.93;;
29732;SDS011;16643;43.158;25.302;2023-06-22T05:27:08;13.60;;;11.40;;
29732;SDS011;16643;43.158;25.302;2023-06-22T05:29:34;14.43;;;11.23;;
29732;SDS011;16643;43.158;25.302;2023-06-22T05:32:00;15.10;;;11.43;;
29732;SDS011;16643;43.158;25.302;2023-06-22T05:34:26;12.93;;;11.40;;
29732;SDS011;16643;43.158;25.302;2023-06-22T05:36:52;14.20;;;11.07;;
29732;SDS011;16643;43.158;25.302;2023-06-22T05:39:17;13.23;;;11.48;;
29732;SDS011;16643;43.158;25.302;2023-06-22T05:41:46;12.77;;;11.07;;
29732;SDS011;16643;43.158;25.302;2023-06-22T05:44:12;13.23;;;11.93;;
29732;SDS011;16643;43.158;25.302;2023-06-22T05:46:43;14.02;;;11.35;;
29732;SDS011;16643;43.158;25.302;2023-06-22T05:49:11;14.80;;;12.38;;
29732;SDS011;16643;43.158;25.302;2023-06-22T05:51:40;15.45;;;11.57;;
29732;SDS011;16643;43.158;25.302;2023-06-22T05:54:09;13.70;;;12.30;;
29732;SDS011;16643;43.158;25.302;2023-06-22T05:56:36;16.40;;;13.77;;
29732;SDS011;16643;43.158;25.302;2023-06-22T05:59:02;53.63;;;37.90;;
29732;SDS011;16643;43.158;25.302;2023-06-22T06:01:29;21.38;;;17.77;;
29732;SDS011;16643;43.158;25.302;2023-06-22T06:04:00;20.05;;;15.95;;
29732;SDS011;16643;43.158;25.302;2023-06-22T06:06:26;20.88;;;18.73;;
29732;SDS011;16643;43.158;25.302;2023-06-22T06:08:54;18.33;;;16.40;;
29732;SDS011;16643;43.158;25.302;2023-06-22T06:11:20;16.90;;;15.10;;
29732;SDS011;16643;43.158;25.302;2023-06-22T06:13:47;16.08;;;14.38;;
29732;SDS011;16643;43.158;25.302;2023-06-22T06:16:14;16.53;;;14.70;;
29732;SDS011;16643;43.158;25.302;2023-06-22T06:18:39;14.88;;;13.40;;
29732;SDS011;16643;43.158;25.302;2023-06-22T06:21:05;19.85;;;14.57;;
29732;SDS011;16643;43.158;25.302;2023-06-22T06:23:31;15.07;;;13.55;;
29732;SDS011;16643;43.158;25.302;2023-06-22T06:25:56;16.13;;;13.18;;
29732;SDS011;16643;43.158;25.302;2023-06-22T06:28:24;15.43;;;12.50;;
29732;SDS011;16643;43.158;25.302;2023-06-22T06:30:50;15.57;;;13.65;;
29732;SDS011;16643;43.158;25.302;2023-06-22T06:33:17;19.67;;;13.48;;
29732;SDS011;16643;43.158;25.302;2023-06-22T06:35:42;20.15;;;13.48;;
29732;SDS011;16643;43.158;25.302;2023-06-22T06:38:08;16.95;;;13.43;;
29732;SDS011;16643;43.158;25.302;2023-06-22T06:40:34;15.43;;;12.52;;
29732;SDS011;16643;43.158;25.302;2023-06-22T06:43:00;16.75;;;14.68;;
29732;SDS011;16643;43.158;25.302;2023-06-22T06:45:25;16.10;;;13.65;;
29732;SDS011;16643;43.158;25.302;2023-06-22T06:47:53;13.75;;;12.38;;
29732;SDS011;16643;43.158;25.302;2023-06-22T06:50:29;16.10;;;14.50;;
29732;SDS011;16643;43.158;25.302;2023-06-22T06:52:55;22.42;;;17.90;;
29732;SDS011;16643;43.158;25.302;2023-06-22T06:55:21;19.08;;;14.38;;
29732;SDS011;16643;43.158;25.302;2023-06-22T06:57:50;14.30;;;12.77;;
29732;SDS011;16643;43.158;25.302;2023-06-22T07:00:16;16.23;;;12.70;;
29732;SDS011;16643;43.158;25.302;2023-06-22T07:02:47;17.00;;;13.15;;
29732;SDS011;16643;43.158;25.302;2023-06-22T07:05:14;14.80;;;12.48;;
29732;SDS011;16643;43.158;25.302;2023-06-22T07:07:49;14.48;;;12.50;;
29732;SDS011;16643;43.158;25.302;2023-06-22T07:10:15;12.93;;;11.43;;
29732;SDS011;16643;43.158;25.302;2023-06-22T07:12:41;13.15;;;11.70;;
29732;SDS011;16643;43.158;25.302;2023-06-22T07:15:07;14.63;;;13.13;;
29732;SDS011;16643;43.158;25.302;2023-06-22T07:17:34;13.73;;;12.32;;
29732;SDS011;16643;43.158;25.302;2023-06-22T07:20:00;14.25;;;12.85;;
29732;SDS011;16643;43.158;25.302;2023-06-22T07:22:27;13.95;;;12.55;;
29732;SDS011;16643;43.158;25.302;2023-06-22T07:24:53;15.35;;;13.65;;
29732;SDS011;16643;43.158;25.302;2023-06-22T07:27:19;14.70;;;11.87;;
29732;SDS011;16643;43.158;25.302;2023-06-22T07:29:46;18.25;;;12.95;;
29732;SDS011;16643;43.158;25.302;2023-06-22T07:32:12;16.67;;;12.77;;
29732;SDS011;16643;43.158;25.302;2023-06-22T07:34:37;14.43;;;12.63;;
29732;SDS011;16643;43.158;25.302;2023-06-22T07:37:03;14.68;;;12.30;;
29732;SDS011;16643;43.158;25.302;2023-06-22T07:39:30;14.75;;;13.00;;
29732;SDS011;16643;43.158;25.302;2023-06-22T07:41:55;14.50;;;12.63;;
29732;SDS011;16643;43.158;25.302;2023-06-22T07:44:21;13.82;;;12.38;;
29732;SDS011;16643;43.158;25.302;2023-06-22T07:46:47;15.40;;;12.75;;
29732;SDS011;16643;43.158;25.302;2023-06-22T07:49:12;14.10;;;12.80;;
29732;SDS011;16643;43.158;25.302;2023-06-22T07:51:38;12.32;;;11.02;;
29732;SDS011;16643;43.158;25.302;2023-06-22T07:54:04;13.25;;;11.52;;
29732;SDS011;16643;43.158;25.302;2023-06-22T07:56:29;15.55;;;12.07;;
29732;SDS011;16643;43.158;25.302;2023-06-22T07:58:55;13.38;;;12.10;;
29732;SDS011;16643;43.158;25.302;2023-06-22T08:01:23;13.40;;;12.10;;
29732;SDS011;16643;43.158;25.302;2023-06-22T08:03:49;13.63;;;12.23;;
29732;SDS011;16643;43.158;25.302;2023-06-22T08:06:15;13.18;;;11.88;;
29732;SDS011;16643;43.158;25.302;2023-06-22T08:08:41;16.27;;;11.60;;
29732;SDS011;16643;43.158;25.302;2023-06-22T08:11:08;14.68;;;11.13;;
29732;SDS011;16643;43.158;25.302;2023-06-22T08:13:34;13.10;;;11.20;;
29732;SDS011;16643;43.158;25.302;2023-06-22T08:16:00;15.80;;;11.77;;
29732;SDS011;16643;43.158;25.302;2023-06-22T08:18:25;13.73;;;12.32;;
29732;SDS011;16643;43.158;25.302;2023-06-22T08:20:51;13.10;;;11.82;;
29732;SDS011;16643;43.158;25.302;2023-06-22T08:23:17;13.75;;;12.45;;
29732;SDS011;16643;43.158;25.302;2023-06-22T08:25:42;13.40;;;11.70;;
29732;SDS011;16643;43.158;25.302;2023-06-22T08:28:08;13.00;;;11.70;;
29732;SDS011;16643;43.158;25.302;2023-06-22T08:30:34;13.65;;;12.27;;
29732;SDS011;16643;43.158;25.302;2023-06-22T08:32:59;13.50;;;11.93;;
29732;SDS011;16643;43.158;25.302;2023-06-22T08:35:25;17.85;;;12.38;;
29732;SDS011;16643;43.158;25.302;2023-06-22T08:37:51;17.05;;;12.05;;
29732;SDS011;16643;43.158;25.302;2023-06-22T08:40:19;12.60;;;11.30;;
29732;SDS011;16643;43.158;25.302;2023-06-22T08:42:46;12.55;;;11.27;;
29732;SDS011;16643;43.158;25.302;2023-06-22T08:45:12;13.48;;;12.07;;
29732;SDS011;16643;43.158;25.302;2023-06-22T08:47:39;13.07;;;11.77;;
29732;SDS011;16643;43.158;25.302;2023-06-22T08:52:33;14.25;;;11.55;;
29732;SDS011;16643;43.158;25.302;2023-06-22T08:54:59;12.95;;;11.38;;
29732;SDS011;16643;43.158;25.302;2023-06-22T08:57:25;14.10;;;11.45;;
29732;SDS011;16643;43.158;25.302;2023-06-22T08:59:51;12.77;;;11.40;;
29732;SDS011;16643;43.158;25.302;2023-06-22T09:02:18;14.50;;;11.32;;
29732;SDS011;16643;43.158;25.302;2023-06-22T09:04:45;16.90;;;12.55;;
29732;SDS011;16643;43.158;25.302;2023-06-22T09:07:11;12.13;;;10.98;;
29732;SDS011;16643;43.158;25.302;2023-06-22T09:09:37;12.90;;;11.63;;
29732;SDS011;16643;43.158;25.302;2023-06-22T09:12:03;12.35;;;11.15;;
29732;SDS011;16643;43.158;25.302;2023-06-22T09:14:29;12.50;;;11.00;;
29732;SDS011;16643;43.158;25.302;2023-06-22T09:16:55;12.57;;;10.63;;
29732;SDS011;16643;43.158;25.302;2023-06-22T09:19:21;11.43;;;10.40;;
29732;SDS011;16643;43.158;25.302;2023-06-22T09:21:46;12.77;;;11.48;;
29732;SDS011;16643;43.158;25.302;2023-06-22T09:24:12;12.18;;;10.40;;
29732;SDS011;16643;43.158;25.302;2023-06-22T09:26:38;15.02;;;10.13;;
29732;SDS011;16643;43.158;25.302;2023-06-22T09:29:06;10.90;;;9.80;;
29732;SDS011;16643;43.158;25.302;2023-06-22T09:31:32;10.60;;;9.25;;
29732;SDS011;16643;43.158;25.302;2023-06-22T09:33:57;10.35;;;9.18;;
29732;SDS011;16643;43.158;25.302;2023-06-22T09:36:23;10.25;;;9.02;;
29732;SDS011;16643;43.158;25.302;2023-06-22T09:38:49;12.30;;;10.63;;
29732;SDS011;16643;43.158;25.302;2023-06-22T09:41:20;12.25;;;10.73;;
29732;SDS011;16643;43.158;25.302;2023-06-22T09:43:46;12.30;;;11.05;;
29732;SDS011;16643;43.158;25.302;2023-06-22T09:46:14;11.10;;;9.95;;
29732;SDS011;16643;43.158;25.302;2023-06-22T09:51:06;11.38;;;10.27;;
29732;SDS011;16643;43.158;25.302;2023-06-22T09:53:31;13.18;;;11.88;;
29732;SDS011;16643;43.158;25.302;2023-06-22T09:55:57;11.88;;;10.65;;
29732;SDS011;16643;43.158;25.302;2023-06-22T09:58:23;11.80;;;10.70;;
29732;SDS011;16643;43.158;25.302;2023-06-22T10:00:48;13.05;;;10.48;;
29732;SDS011;16643;43.158;25.302;2023-06-22T10:03:14;13.95;;;12.18;;
29732;SDS011;16643;43.158;25.302;2023-06-22T10:05:40;14.32;;;12.82;;
29732;SDS011;16643;43.158;25.302;2023-06-22T10:08:05;11.40;;;10.10;;
29732;SDS011;16643;43.158;25.302;2023-06-22T10:10:33;12.00;;;9.77;;
29732;SDS011;16643;43.158;25.302;2023-06-22T10:13:02;11.20;;;10.13;;
29732;SDS011;16643;43.158;25.302;2023-06-22T10:18:02;13.27;;;9.70;;
29732;SDS011;16643;43.158;25.302;2023-06-22T10:20:30;10.68;;;9.70;;
29732;SDS011;16643;43.158;25.302;2023-06-22T10:22:58;11.05;;;9.35;;
29732;SDS011;16643;43.158;25.302;2023-06-22T10:25:26;11.32;;;9.75;;
29732;SDS011;16643;43.158;25.302;2023-06-22T10:27:54;11.25;;;10.20;;
29732;SDS011;16643;43.158;25.302;2023-06-22T10:30:20;10.20;;;9.20;;
29732;SDS011;16643;43.158;25.302;2023-06-22T10:33:16;10.27;;;9.07;;
29732;SDS011;16643;43.158;25.302;2023-06-22T10:35:43;10.52;;;9.07;;
29732;SDS011;16643;43.158;25.302;2023-06-22T10:38:20;9.77;;;8.93;;
29732;SDS011;16643;43.158;25.302;2023-06-22T10:40:49;9.95;;;8.95;;
29732;SDS011;16643;43.158;25.302;2023-06-22T10:43:19;10.70;;;8.48;;
29732;SDS011;16643;43.158;25.302;2023-06-22T10:45:45;9.13;;;8.18;;
29732;SDS011;16643;43.158;25.302;2023-06-22T10:50:39;11.30;;;8.43;;
29732;SDS011;16643;43.158;25.302;2023-06-22T10:55:31;9.60;;;8.70;;
29732;SDS011;16643;43.158;25.302;2023-06-22T10:57:59;9.77;;;8.88;;
29732;SDS011;16643;43.158;25.302;2023-06-22T11:00:26;10.27;;;8.85;;
29732;SDS011;16643;43.158;25.302;2023-06-22T11:02:52;9.32;;;8.43;;
29732;SDS011;16643;43.158;25.302;2023-06-22T11:05:18;9.32;;;8.10;;
29732;SDS011;16643;43.158;25.302;2023-06-22T11:07:48;10.07;;;9.00;;
29732;SDS011;16643;43.158;25.302;2023-06-22T11:10:14;9.93;;;9.10;;
29732;SDS011;16643;43.158;25.302;2023-06-22T11:12:42;10.05;;;9.00;;
29732;SDS011;16643;43.158;25.302;2023-06-22T11:15:08;11.52;;;9.07;;
29732;SDS011;16643;43.158;25.302;2023-06-22T11:17:34;9.57;;;8.67;;
29732;SDS011;16643;43.158;25.302;2023-06-22T11:20:01;9.90;;;8.90;;
29732;SDS011;16643;43.158;25.302;2023-06-22T11:22:30;10.32;;;9.32;;
29732;SDS011;16643;43.158;25.302;2023-06-22T11:24:58;10.88;;;9.32;;
29732;SDS011;16643;43.158;25.302;2023-06-22T11:27:24;10.90;;;9.38;;
29732;SDS011;16643;43.158;25.302;2023-06-22T11:29:50;12.07;;;9.27;;
29732;SDS011;16643;43.158;25.302;2023-06-22T11:32:18;9.88;;;8.98;;
29732;SDS011;16643;43.158;25.302;2023-06-22T11:34:43;10.73;;;9.57;;
29732;SDS011;16643;43.158;25.302;2023-06-22T11:37:09;10.48;;;8.95;;
29732;SDS011;16643;43.158;25.302;2023-06-22T11:39:35;10.10;;;9.23;;
29732;SDS011;16643;43.158;25.302;2023-06-22T11:42:00;12.63;;;9.20;;
29732;SDS011;16643;43.158;25.302;2023-06-22T11:44:26;10.73;;;9.73;;
29732;SDS011;16643;43.158;25.302;2023-06-22T11:46:51;10.00;;;8.48;;
29732;SDS011;16643;43.158;25.302;2023-06-22T11:49:17;9.95;;;8.98;;
29732;SDS011;16643;43.158;25.302;2023-06-22T11:51:43;11.02;;;9.93;;
29732;SDS011;16643;43.158;25.302;2023-06-22T11:54:08;9.52;;;8.57;;
29732;SDS011;16643;43.158;25.302;2023-06-22T11:56:34;10.32;;;9.10;;
29732;SDS011;16643;43.158;25.302;2023-06-22T11:59:00;10.98;;;8.88;;
29732;SDS011;16643;43.158;25.302;2023-06-22T12:01:25;10.38;;;9.27;;
29732;SDS011;16643;43.158;25.302;2023-06-22T12:03:51;12.45;;;9.40;;
29732;SDS011;16643;43.158;25.302;2023-06-22T12:06:17;9.82;;;8.82;;
29732;SDS011;16643;43.158;25.302;2023-06-22T12:08:42;13.30;;;9.20;;
29732;SDS011;16643;43.158;25.302;2023-06-22T12:11:08;10.25;;;9.15;;
29732;SDS011;16643;43.158;25.302;2023-06-22T12:13:34;12.73;;;9.27;;
29732;SDS011;16643;43.158;25.302;2023-06-22T12:15:59;10.13;;;9.13;;
29732;SDS011;16643;43.158;25.302;2023-06-22T12:18:25;10.10;;;9.05;;
29732;SDS011;16643;43.158;25.302;2023-06-22T12:20:51;9.40;;;8.50;;
29732;SDS011;16643;43.158;25.302;2023-06-22T12:23:16;10.25;;;8.90;;
29732;SDS011;16643;43.158;25.302;2023-06-22T12:25:42;11.07;;;9.10;;
29732;SDS011;16643;43.158;25.302;2023-06-22T12:28:10;10.18;;;8.73;;
29732;SDS011;16643;43.158;25.302;2023-06-22T12:30:35;9.98;;;8.98;;
29732;SDS011;16643;43.158;25.302;2023-06-22T12:33:01;10.30;;;9.30;;
29732;SDS011;16643;43.158;25.302;2023-06-22T12:35:27;10.45;;;9.35;;
29732;SDS011;16643;43.158;25.302;2023-06-22T12:37:52;10.13;;;8.93;;
29732;SDS011;16643;43.158;25.302;2023-06-22T12:40:18;10.48;;;9.40;;
29732;SDS011;16643;43.158;25.302;2023-06-22T12:42:44;9.82;;;8.88;;
29732;SDS011;16643;43.158;25.302;2023-06-22T12:45:10;10.57;;;8.97;;
29732;SDS011;16643;43.158;25.302;2023-06-22T12:47:36;9.32;;;8.43;;
29732;SDS011;16643;43.158;25.302;2023-06-22T12:50:02;10.27;;;9.27;;
29732;SDS011;16643;43.158;25.302;2023-06-22T12:52:29;10.05;;;9.13;;
29732;SDS011;16643;43.158;25.302;2023-06-22T12:54:58;9.57;;;8.68;;
29732;SDS011;16643;43.158;25.302;2023-06-22T12:57:24;10.27;;;9.00;;
29732;SDS011;16643;43.158;25.302;2023-06-22T12:59:50;9.60;;;8.60;;
29732;SDS011;16643;43.158;25.302;2023-06-22T13:02:16;9.48;;;8.57;;
29732;SDS011;16643;43.158;25.302;2023-06-22T13:04:42;10.93;;;8.70;;
29732;SDS011;16643;43.158;25.302;2023-06-22T13:07:08;8.57;;;7.78;;
29732;SDS011;16643;43.158;25.302;2023-06-22T13:09:35;11.25;;;9.30;;
29732;SDS011;16643;43.158;25.302;2023-06-22T13:12:02;10.32;;;7.82;;
29732;SDS011;16643;43.158;25.302;2023-06-22T13:14:27;9.85;;;8.60;;
29732;SDS011;16643;43.158;25.302;2023-06-22T13:16:53;9.88;;;8.88;;
29732;SDS011;16643;43.158;25.302;2023-06-22T13:19:18;13.50;;;9.98;;
29732;SDS011;16643;43.158;25.302;2023-06-22T13:21:45;10.40;;;9.32;;
29732;SDS011;16643;43.158;25.302;2023-06-22T13:24:11;9.65;;;8.63;;
29732;SDS011;16643;43.158;25.302;2023-06-22T13:26:37;11.52;;;8.57;;
29732;SDS011;16643;43.158;25.302;2023-06-22T13:29:03;9.30;;;8.07;;
29732;SDS011;16643;43.158;25.302;2023-06-22T13:31:29;9.77;;;8.80;;
29732;SDS011;16643;43.158;25.302;2023-06-22T13:33:55;9.52;;;8.63;;
29732;SDS011;16643;43.158;25.302;2023-06-22T13:36:20;8.70;;;7.88;;
29732;SDS011;16643;43.158;25.302;2023-06-22T13:38:48;10.05;;;8.65;;
29732;SDS011;16643;43.158;25.302;2023-06-22T13:41:14;10.27;;;9.27;;
29732;SDS011;16643;43.158;25.302;2023-06-22T13:43:40;8.68;;;7.88;;
29732;SDS011;16643;43.158;25.302;2023-06-22T13:46:05;9.88;;;8.90;;
29732;SDS011;16643;43.158;25.302;2023-06-22T13:48:31;9.10;;;8.20;;
29732;SDS011;16643;43.158;25.302;2023-06-22T13:50:57;11.88;;;9.30;;
29732;SDS011;16643;43.158;25.302;2023-06-22T13:53:24;9.35;;;8.45;;
29732;SDS011;16643;43.158;25.302;2023-06-22T13:55:50;9.18;;;8.07;;
29732;SDS011;16643;43.158;25.302;2023-06-22T13:58:16;10.45;;;9.13;;
29732;SDS011;16643;43.158;25.302;2023-06-22T14:00:42;10.27;;;7.95;;
29732;SDS011;16643;43.158;25.302;2023-06-22T14:03:07;10.50;;;8.98;;
29732;SDS011;16643;43.158;25.302;2023-06-22T14:05:33;10.20;;;9.20;;
29732;SDS011;16643;43.158;25.302;2023-06-22T14:07:59;8.85;;;8.05;;
29732;SDS011;16643;43.158;25.302;2023-06-22T14:10:24;9.30;;;8.45;;
29732;SDS011;16643;43.158;25.302;2023-06-22T14:12:50;11.68;;;9.07;;
29732;SDS011;16643;43.158;25.302;2023-06-22T14:15:16;11.00;;;9.60;;
29732;SDS011;16643;43.158;25.302;2023-06-22T14:17:42;8.77;;;7.88;;
29732;SDS011;16643;43.158;25.302;2023-06-22T14:20:11;17.65;;;9.18;;
29732;SDS011;16643;43.158;25.302;2023-06-22T14:22:39;11.23;;;9.10;;
29732;SDS011;16643;43.158;25.302;2023-06-22T14:25:05;11.20;;;8.85;;
29732;SDS011;16643;43.158;25.302;2023-06-22T14:27:36;10.80;;;8.60;;
29732;SDS011;16643;43.158;25.302;2023-06-22T14:30:01;9.30;;;8.27;;
29732;SDS011;16643;43.158;25.302;2023-06-22T14:32:30;10.10;;;8.68;;
29732;SDS011;16643;43.158;25.302;2023-06-22T14:34:59;9.50;;;8.60;;
29732;SDS011;16643;43.158;25.302;2023-06-22T14:37:33;10.57;;;9.02;;
29732;SDS011;16643;43.158;25.302;2023-06-22T14:40:01;10.15;;;9.05;;